createdAt,value
2019-05-23T00:06:16.267Z,14.20
2019-05-23T00:16:23.201Z,13.80
2019-05-23T00:26:29.902Z,13.50
2019-05-23T00:36:35.623Z,13.30
2019-05-23T00:46:41.458Z,13.30
2019-05-23T00:56:47.247Z,13.00
2019-05-23T01:06:53.860Z,13.00
2019-05-23T01:17:00.948Z,13.00
2019-05-23T01:27:08.054Z,12.90
2019-05-23T01:37:15.190Z,12.70
2019-05-23T01:47:21.066Z,12.60
2019-05-23T01:57:26.405Z,12.50
2019-05-23T02:07:32.207Z,12.40
2019-05-23T02:17:40.197Z,12.30
2019-05-23T02:27:47.529Z,12.10
2019-05-23T02:38:14.654Z,11.90
2019-05-23T02:48:25.049Z,11.80
2019-05-23T02:58:52.125Z,11.80
2019-05-23T03:08:59.570Z,11.70
2019-05-23T03:19:09.554Z,11.70
2019-05-23T03:29:16.783Z,11.70
2019-05-23T03:39:24.654Z,11.70
2019-05-23T03:49:31.003Z,11.80
2019-05-23T03:59:38.270Z,11.80
2019-05-23T04:09:44.484Z,11.90
2019-05-23T04:19:50.578Z,12.00
2019-05-23T04:29:55.896Z,12.10
2019-05-23T04:40:01.361Z,12.30
2019-05-23T04:50:09.971Z,12.40
2019-05-23T05:00:16.711Z,12.50
2019-05-23T05:10:25.848Z,12.60
2019-05-23T05:20:31.711Z,12.70
2019-05-23T05:30:36.991Z,12.90
2019-05-23T05:40:42.527Z,13.10
2019-05-23T05:50:47.967Z,13.30
2019-05-23T06:01:03.757Z,13.50
2019-05-23T06:11:10.072Z,13.80
2019-05-23T06:21:18.998Z,14.10
2019-05-23T06:31:24.669Z,14.30
2019-05-23T06:41:29.975Z,14.60
2019-05-23T06:51:35.632Z,14.80
2019-05-23T07:01:41.491Z,15.00
2019-05-23T07:11:47.044Z,15.20
2019-05-23T07:21:52.883Z,15.60
2019-05-23T07:31:58.600Z,15.90
2019-05-23T07:42:05.883Z,16.10
2019-05-23T07:52:11.320Z,16.40
2019-05-23T08:02:26.987Z,16.70
2019-05-23T08:12:32.306Z,17.00
2019-05-23T08:22:37.781Z,17.30
2019-05-23T08:32:44.359Z,17.60
2019-05-23T08:42:50.211Z,17.90
2019-05-23T08:52:55.504Z,18.10
2019-05-23T09:03:00.890Z,18.30
2019-05-23T09:13:07.092Z,18.50
2019-05-23T09:23:12.759Z,18.90
2019-05-23T09:33:18.129Z,19.30
2019-05-23T09:43:23.522Z,19.40
2019-05-23T09:53:29.193Z,19.80
2019-05-23T10:03:34.993Z,20.10
2019-05-23T10:13:40.271Z,20.60
2019-05-23T10:23:45.898Z,21.10
2019-05-23T10:33:51.534Z,21.60
2019-05-23T10:43:56.876Z,22.30
2019-05-23T10:54:02.436Z,23.00
2019-05-23T11:04:08.368Z,23.80
2019-05-23T11:14:15.234Z,24.60
2019-05-23T11:24:21.080Z,25.60
2019-05-23T11:34:26.839Z,26.00
2019-05-23T11:44:32.423Z,26.30
2019-05-23T11:54:38.279Z,26.90
2019-05-23T12:04:44.614Z,27.50
2019-05-23T12:14:49.960Z,28.20
2019-05-23T12:24:55.651Z,28.10
2019-05-23T12:35:10.648Z,28.50
2019-05-23T12:45:09.719Z,28.80
2019-05-23T12:55:15.499Z,28.90
2019-05-23T13:05:22.495Z,29.40
2019-05-23T13:15:28.382Z,28.80
2019-05-23T13:25:33.790Z,28.70
2019-05-23T13:35:39.616Z,28.50
2019-05-23T13:45:45.437Z,28.50
2019-05-23T13:55:51.525Z,28.00
2019-05-23T14:05:58.263Z,28.00
2019-05-23T14:16:05.873Z,27.60
2019-05-23T14:26:13.535Z,27.70
2019-05-23T14:36:24.775Z,27.30
2019-05-23T14:46:34.111Z,27.10
2019-05-23T14:56:39.937Z,26.80
2019-05-23T15:06:46.225Z,26.40
2019-05-23T15:16:51.575Z,25.70
2019-05-23T15:26:56.959Z,25.60
2019-05-23T15:37:02.748Z,26.10
2019-05-23T15:47:08.600Z,25.80
2019-05-23T15:57:19.573Z,26.50
2019-05-23T16:07:26.833Z,26.40
2019-05-23T16:17:32.442Z,26.00
2019-05-23T16:27:38.291Z,25.80
2019-05-23T16:37:43.585Z,25.40
2019-05-23T16:47:48.904Z,24.80
2019-05-23T16:57:58.524Z,24.50
2019-05-23T17:08:18.673Z,24.10
2019-05-23T17:18:36.085Z,23.60
2019-05-23T17:28:45.027Z,23.60
2019-05-23T17:38:50.664Z,23.60
2019-05-23T17:48:56.018Z,23.50
2019-05-23T17:59:01.572Z,23.30
2019-05-23T18:09:09.063Z,23.00
2019-05-23T18:19:14.824Z,22.80
2019-05-23T18:29:20.399Z,22.50
2019-05-23T18:39:25.719Z,22.30
2019-05-23T18:49:32.348Z,22.00
2019-05-23T18:59:37.987Z,21.70
2019-05-23T19:09:43.905Z,21.40
2019-05-23T19:19:49.163Z,21.00
2019-05-23T19:29:54.878Z,20.70
2019-05-23T19:40:00.127Z,20.30
2019-05-23T19:50:05.547Z,20.00
2019-05-23T20:00:14.991Z,19.60
2019-05-23T20:10:21.300Z,19.20
2019-05-23T20:20:26.737Z,19.00
2019-05-23T20:30:57.287Z,18.50
2019-05-23T20:41:02.910Z,18.10
2019-05-23T20:51:08.397Z,17.80
2019-05-23T21:01:22.067Z,17.60
2019-05-23T21:11:27.837Z,17.40
2019-05-23T21:21:33.091Z,17.30
2019-05-23T21:31:38.490Z,17.20
2019-05-23T21:41:43.823Z,17.10
2019-05-23T21:51:51.731Z,16.90
2019-05-23T22:02:13.484Z,16.60
2019-05-23T22:12:19.393Z,16.50
2019-05-23T22:22:24.915Z,16.40
2019-05-23T22:32:31.807Z,16.20
2019-05-23T22:42:38.688Z,16.00
2019-05-23T22:52:44.515Z,15.80
2019-05-23T23:02:49.867Z,15.80
2019-05-23T23:12:55.310Z,15.60
2019-05-23T23:23:00.560Z,15.40
2019-05-23T23:33:06.279Z,15.40
2019-05-23T23:43:11.904Z,15.40
2019-05-23T23:53:35.315Z,15.10
